Data for 11/22/2008

Time Sea-Level Adjusted Pressure Absolute Pressure Temperature Relative Humidity Dew Point   
(mb) (inHg) (mb) (inHg) (C) (F) (%) (C) (F)
00:05 1019 30.09 849 25.07 -3.2 26.2 50 -12.3 9.9
00:10 1019 30.09 849 25.07 -3.2 26.2 50 -12.2 10
00:15 1019 30.09 849 25.07 -3.2 26.2 50 -12.3 9.9
00:20 1019 30.09 849 25.07 -3.3 26.1 50 -12.3 9.9
00:25 1019 30.09 848 25.04 -3.3 26.1 50 -12.2 10
00:30 1019 30.09 848 25.04 -3.2 26.2 50 -12.3 9.8
00:35 1019 30.09 848 25.04 -3.1 26.5 49 -12.4 9.7
00:40 1019 30.09 848 25.04 -3 26.7 49 -12.3 9.9
00:45 1019 30.09 848 25.04 -3 26.7 50 -12 10.4
00:50 1019 30.09 848 25.04 -3.4 25.8 51 -12.2 10
00:55 1019 30.09 848 25.04 -3.3 26 50 -12.3 9.8
01:00 1019 30.09 848 25.04 -3.1 26.3 49 -12.3 9.9
01:05 1019 30.09 848 25.04 -3.2 26.2 50 -12.2 10
01:10 1019 30.09 848 25.04 -3.3 26 50 -12.2 10
01:15 1019 30.09 848 25.04 -3.4 25.8 52 -12 10.4
01:20 1019 30.09 848 25.04 -3.5 25.7 51 -12.3 9.9
01:25 1019 30.09 848 25.04 -3.4 25.9 50 -12.4 9.8
01:30 1019 30.09 848 25.04 -3.1 26.3 50 -12.2 10
01:35 1019 30.09 848 25.04 -3.3 26.1 51 -11.9 10.5
01:40 1019 30.09 848 25.04 -3.2 26.2 51 -12 10.3
01:45 1019 30.09 848 25.04 -3 26.6 50 -11.9 10.5
01:50 1019 30.09 848 25.04 -2.8 26.9 50 -11.9 10.6
01:55 1019 30.09 848 25.04 -2.9 26.7 50 -11.8 10.7
02:00 1019 30.09 848 25.04 -3 26.5 50 -12 10.4
02:05 1019 30.09 848 25.04 -3.3 26.1 49 -12.5 9.5
02:10 1019 30.09 848 25.04 -3.1 26.4 49 -12.4 9.7
02:15 1019 30.09 848 25.04 -3.1 26.5 50 -12.1 10.3
02:20 1019 30.09 848 25.04 -3.2 26.2 51 -12 10.4
02:25 1019 30.09 848 25.04 -3.3 26 51 -12 10.4
02:30 1018 30.06 848 25.04 -3.1 26.4 50 -12.1 10.1
02:35 1018 30.06 848 25.04 -3 26.6 51 -11.9 10.5
02:40 1018 30.06 848 25.04 -3.6 25.4 53 -11.8 10.7
02:45 1018 30.06 848 25.04 -4 24.8 54 -11.9 10.6
02:50 1018 30.06 847 25.01 -4.2 24.5 55 -11.9 10.7
02:55 1018 30.06 847 25.01 -4.5 24 56 -12 10.5
03:00 1018 30.06 847 25.01 -4.3 24.2 57 -11.7 11
03:05 1018 30.06 847 25.01 -4.2 24.4 57 -11.6 11.1
03:10 1018 30.06 847 25.01 -4.2 24.5 57 -11.5 11.2
03:15 1018 30.06 847 25.01 -4.4 24.2 58 -11.5 11.3
03:20 1018 30.06 847 25.01 -4.2 24.4 56 -11.7 10.9
03:25 1018 30.06 847 25.01 -3.9 25 55 -11.6 11.2
03:30 1018 30.06 847 25.01 -3.4 25.9 54 -11.5 11.3
03:35 1017 30.03 847 25.01 -2.9 26.7 53 -11.3 11.7
03:40 1017 30.03 847 25.01 -3.2 26.2 56 -10.9 12.4
03:45 1017 30.03 847 25.01 -3.2 26.2 54 -11.2 11.8
03:50 1017 30.03 847 25.01 -2.9 26.7 54 -11.1 12.1
03:55 1017 30.03 846 24.98 -2.9 26.8 52 -11.5 11.3
04:00 1017 30.03 846 24.98 -2.5 27.4 51 -11.4 11.5
04:05 1017 30.03 846 24.98 -2.4 27.6 51 -11.2 11.9
04:10 1017 30.03 846 24.98 -2.2 28 52 -10.8 12.6
04:15 1017 30.03 846 24.98 -2.3 27.9 53 -10.6 13
04:20 1017 30.03 846 24.98 -2.3 27.9 53 -10.7 12.7
04:25 1017 30.03 846 24.98 -2.1 28.2 52 -10.7 12.8
04:30 1017 30.03 846 24.98 -2 28.4 52 -10.7 12.8
04:35 1017 30.03 846 24.98 -1.8 28.8 50 -10.8 12.6
04:40 1017 30.03 846 24.98 -1.5 29.3 49 -10.8 12.6
04:45 1017 30.03 846 24.98 -1.5 29.4 50 -10.7 12.8
04:50 1017 30.03 846 24.98 -1.5 29.3 50 -10.6 13
04:55 1017 30.03 846 24.98 -1.4 29.4 50 -10.5 13.1
05:00 1017 30.03 846 24.98 -1.6 29.1 51 -10.4 13.3
05:05 1017 30.03 846 24.98 -1.8 28.8 52 -10.4 13.4
05:10 1017 30.03 846 24.98 -1.9 28.6 52 -10.6 12.9
05:15 1017 30.03 846 24.98 -1.9 28.6 52 -10.5 13
05:20 1017 30.03 846 24.98 -2 28.4 53 -10.4 13.3
05:25 1017 30.03 846 24.98 -2.2 28.1 54 -10.3 13.4
05:30 1017 30.03 846 24.98 -2.4 27.6 54 -10.5 13.1
05:35 1017 30.03 846 24.98 -2.4 27.7 54 -10.6 13
05:40 1017 30.03 846 24.98 -2.4 27.6 55 -10.3 13.4
05:45 1017 30.03 846 24.98 -2.7 27.2 54 -10.7 12.7
05:50 1017 30.03 846 24.98 -2.6 27.4 54 -10.6 12.9
05:55 1017 30.03 846 24.98 -2.8 27 56 -10.5 13.1
06:00 1017 30.03 846 24.98 -3.3 26.1 57 -10.6 12.9
06:05 1017 30.03 846 24.98 -3.6 25.5 57 -11 12.2
06:10 1017 30.03 846 24.98 -3.7 25.4 55 -11.4 11.5
06:15 1017 30.03 846 24.98 -3.3 26 53 -11.7 11
06:20 1017 30.03 846 24.98 -2.8 26.9 50 -11.9 10.6
06:25 1016 30 846 24.98 -2.7 27.2 49 -12.1 10.3
06:30 1017 30.03 846 24.98 -1.9 28.6 47 -11.9 10.6
06:35 1016 30 846 24.98 -2 28.5 50 -11.1 12
06:40 1016 30 846 24.98 -2.3 27.8 51 -11.2 11.8
06:45 1016 30 846 24.98 -2.3 27.8 49 -11.5 11.2
06:50 1016 30 846 24.98 -2.2 28 49 -11.6 11.1
06:55 1016 30 846 24.98 -2 28.5 46 -12.2 10
07:00 1016 30 846 24.98 -1.9 28.7 51 -10.8 12.5
07:05 1016 30 846 24.98 -2.2 28 59 -9.3 15.3
07:10 1016 30 846 24.98 -2.4 27.6 60 -9.1 15.7
07:15 1016 30 845 24.95 -2 28.4 58 -9.2 15.5
07:20 1016 30 845 24.95 -1.8 28.7 60 -8.5 16.7
07:25 1016 30 845 24.95 -2.3 27.9 62 -8.6 16.5
07:30 1016 30 845 24.95 -2.7 27.2 62 -8.9 16
07:35 1016 30 845 24.95 -3.1 26.4 64 -9 15.8
07:40 1016 30 845 24.95 -3.3 26.1 56 -10.9 12.4
07:45 1016 30 845 24.95 -2.7 27.1 53 -11 12.1
07:50 1016 30 845 24.95 -1.8 28.8 50 -10.9 12.3
07:55 1016 30 845 24.95 -1.4 29.5 49 -10.9 12.4
08:00 1016 30 845 24.95 -0.9 30.4 48 -10.6 13
08:05 1016 30 845 24.95 -0.9 30.5 48 -10.6 13
08:10 1016 30 845 24.95 -0.5 31.2 45 -10.9 12.4
08:15 1016 30 845 24.95 -0.6 30.9 48 -10.2 13.6
08:20 1016 30 846 24.98 -1.7 28.9 53 -10.2 13.7
08:25 1016 30 846 24.98 -2.3 27.9 55 -10.2 13.6
08:30 1016 30 846 24.98 -2.5 27.4 55 -10.4 13.2
08:35 1016 30 846 24.98 -2.5 27.6 54 -10.6 13
08:40 1017 30.03 846 24.98 -2.2 28.1 51 -10.9 12.4
08:45 1017 30.03 846 24.98 -1.7 28.9 52 -10.3 13.4
08:50 1017 30.03 846 24.98 -1.5 29.4 51 -10.3 13.4
08:55 1017 30.03 846 24.98 -1.4 29.5 54 -9.6 14.8
09:00 1017 30.03 846 24.98 -1.7 29 52 -10.2 13.6
09:05 1017 30.03 846 24.98 -1.8 28.7 54 -10.1 13.9
09:10 1017 30.03 846 24.98 -1.6 29.1 48 -11.4 11.5
09:15 1017 30.03 846 24.98 -1 30.2 48 -10.6 13
09:20 1017 30.03 846 24.98 -0.7 30.8 47 -10.6 13
09:25 1017 30.03 846 24.98 -0.5 31.2 44 -11.3 11.7
09:30 1017 30.03 846 24.98 -0.3 31.5 44 -11.2 11.8
09:35 1017 30.03 846 24.98 -0.2 31.7 42 -11.5 11.2
09:40 1017 30.03 846 24.98 -0.1 31.8 48 -9.9 14.1
09:45 1016 30 846 24.98 -0.3 31.4 49 -9.9 14.2
09:50 1016 30 846 24.98 -0.2 31.6 48 -9.8 14.3
09:55 1016 30 846 24.98 0.2 32.3 47 -9.9 14.2
10:00 1016 30 846 24.98 0.3 32.5 47 -9.9 14.2
10:05 1016 30 846 24.98 0.3 32.5 38 -12.4 9.7
10:10 1016 30 845 24.95 0.6 33.1 38 -12.2 10.1
10:15 1016 30 845 24.95 1.1 33.9 48 -8.8 16.1
10:20 1016 30 846 24.98 1.5 34.7 51 -7.7 18.1
10:25 1016 30 846 24.98 1.7 35 53 -7 19.4
10:30 1016 30 846 24.98 1.7 35 52 -7.2 19.1
10:35 1017 30.03 846 24.98 1.8 35.2 51 -7.2 19.1
10:40 1016 30 846 24.98 1.9 35.3 50 -7.5 18.5
10:45 1017 30.03 846 24.98 1.8 35.2 51 -7.3 18.9
10:50 1017 30.03 846 24.98 1.7 35 53 -6.9 19.6
10:55 1017 30.03 846 24.98 1.3 34.3 54 -7.1 19.3
11:00 1017 30.03 846 24.98 1.2 34.1 57 -6.3 20.6
11:05 1017 30.03 846 24.98 1 33.7 55 -7 19.5
11:10 1017 30.03 846 24.98 1.1 34 54 -7.3 18.9
11:15 1017 30.03 846 24.98 1.3 34.4 45 -9.3 15.3
11:20 1017 30.03 846 24.98 1.4 34.5 41 -10.5 13.1
11:25 1017 30.03 846 24.98 1.6 34.8 38 -11.3 11.7
11:30 1016 30 846 24.98 1.8 35.2 41 -10 14
11:35 1016 30 846 24.98 2 35.6 36 -11.5 11.3
11:40 1016 30 845 24.95 2.1 35.8 39 -10.5 13.1
11:45 1016 30 845 24.95 2.5 36.5 37 -10.8 12.5
11:50 1016 30 845 24.95 2.3 36.2 35 -11.8 10.8
11:55 1016 30 845 24.95 2.6 36.7 34 -11.8 10.7
12:00 1016 30 845 24.95 3.5 38.3 34 -11 12.2
12:05 1016 30 845 24.95 3.9 39.1 32 -11.2 11.8
12:10 1016 30 845 24.95 3.9 39.1 34 -10.6 12.9
12:15 1016 30 845 24.95 4.4 39.9 32 -11 12.2
12:20 1016 30 845 24.95 4.5 40.1 32 -10.9 12.4
12:25 1016 30 845 24.95 4.2 39.6 33 -10.8 12.5
12:30 1016 30 845 24.95 3.7 38.7 35 -10.3 13.4
12:35 1016 30 845 24.95 4 39.2 32 -11.3 11.7
12:40 1015 29.97 845 24.95 3.6 38.6 36 -10 14.1
12:45 1015 29.97 845 24.95 4 39.2 32 -11.1 12.1
12:50 1016 30 845 24.95 4.2 39.5 34 -10.3 13.4
12:55 1016 30 845 24.95 4.1 39.4 36 -9.6 14.7
13:00 1016 30 845 24.95 4 39.2 37 -9.5 14.9
13:05 1016 30 845 24.95 3.8 38.9 36 -9.9 14.2
13:10 1016 30 845 24.95 3.8 38.9 38 -9.3 15.2
13:15 1016 30 845 24.95 3.6 38.5 39 -9.2 15.4
13:20 1016 30 845 24.95 3.6 38.4 37 -9.8 14.3
13:25 1016 30 845 24.95 3.6 38.4 37 -9.7 14.6
13:30 1016 30 845 24.95 3.5 38.4 38 -9.4 15.1
13:35 1016 30 845 24.95 3.4 38.1 41 -8.5 16.6
13:40 1016 30 845 24.95 3.7 38.6 39 -9.1 15.6
13:45 1016 30 845 24.95 3.8 38.8 38 -9.3 15.2
13:50 1016 30 845 24.95 4 39.2 36 -9.8 14.3
13:55 1016 30 845 24.95 4.1 39.4 37 -9.4 15.2
14:00 1016 30 845 24.95 4.1 39.3 37 -9.4 15.1
14:05 1015 29.97 845 24.95 4 39.2 38 -9.1 15.6
14:10 1015 29.97 845 24.95 4.1 39.3 36 -9.5 14.8
14:15 1015 29.97 845 24.95 4 39.2 37 -9.4 15.1
14:20 1015 29.97 845 24.95 3.7 38.7 40 -8.6 16.5
14:25 1015 29.97 844 24.92 3.6 38.6 40 -8.9 16
14:30 1015 29.97 844 24.92 3.6 38.4 40 -8.7 16.3
14:35 1015 29.97 844 24.92 3.7 38.6 42 -8 17.6
14:40 1015 29.97 844 24.92 4 39.3 39 -8.8 16.2
14:45 1015 29.97 844 24.92 4.2 39.6 37 -9.4 15.1
14:50 1015 29.97 845 24.95 4.3 39.7 39 -8.6 16.4
14:55 1015 29.97 845 24.95 4.2 39.6 39 -8.4 16.8
15:00 1015 29.97 845 24.95 4.1 39.4 42 -7.7 18.2
15:05 1016 30 845 24.95 3.9 39 40 -8.7 16.4
15:10 1015 29.97 845 24.95 3.6 38.4 41 -8.3 17
15:15 1015 29.97 845 24.95 3.9 38.9 43 -7.7 18.2
15:20 1015 29.97 845 24.95 4 39.3 42 -7.6 18.3
15:25 1015 29.97 845 24.95 3.9 38.9 41 -8.3 17.1
15:30 1015 29.97 845 24.95 3.6 38.5 43 -7.8 18
15:35 1015 29.97 845 24.95 3.9 39.1 41 -8 17.5
15:40 1015 29.97 845 24.95 4 39.2 40 -8.3 17
15:45 1015 29.97 845 24.95 4 39.2 41 -8 17.7
15:50 1016 30 845 24.95 3.9 39 46 -6.7 20
15:55 1016 30 845 24.95 3.7 38.6 44 -7.5 18.5
16:00 1016 30 845 24.95 3.3 37.9 48 -6.7 20
16:05 1016 30 845 24.95 3.2 37.8 48 -6.7 19.9
16:10 1016 30 845 24.95 3.2 37.7 47 -7 19.3
16:15 1016 30 845 24.95 3.5 38.3 45 -7.2 19
16:20 1016 30 845 24.95 3.6 38.4 46 -7 19.5
16:25 1016 30 845 24.95 3.5 38.3 47 -6.6 20
16:30 1016 30 845 24.95 3.5 38.3 48 -6.4 20.4
16:35 1016 30 845 24.95 3.5 38.3 50 -5.9 21.4
16:40 1016 30 845 24.95 3.5 38.3 49 -6.1 21
16:45 1016 30 845 24.95 3.2 37.7 49 -6.4 20.4
16:50 1016 30 845 24.95 3.2 37.7 49 -6.6 20.1
16:55 1016 30 846 24.98 3.2 37.8 46 -7.3 18.9
17:00 1016 30 846 24.98 3.5 38.3 48 -6.4 20.4
17:05 1016 30 846 24.98 3.5 38.3 48 -6.4 20.4
17:10 1016 30 846 24.98 3.4 38.2 48 -6.5 20.3
17:15 1016 30 846 24.98 3.6 38.5 47 -6.7 20
17:20 1016 30 846 24.98 3.5 38.3 48 -6.5 20.2
17:25 1017 30.03 846 24.98 3.5 38.3 45 -7.3 18.9
17:30 1017 30.03 846 24.98 3.5 38.3 46 -7.1 19.3
17:35 1017 30.03 846 24.98 3.5 38.4 46 -7.1 19.3
17:40 1017 30.03 846 24.98 3.7 38.7 45 -7.1 19.3
17:45 1017 30.03 846 24.98 3.9 38.9 44 -7.3 18.9
17:50 1017 30.03 846 24.98 3.9 38.9 46 -6.8 19.7
17:55 1017 30.03 846 24.98 3.8 38.8 46 -6.7 19.9
18:00 1017 30.03 846 24.98 3.7 38.7 46 -7 19.5
18:05 1017 30.03 846 24.98 3.6 38.5 44 -7.4 18.6
18:10 1017 30.03 846 24.98 3.7 38.6 45 -7.1 19.3
18:15 1017 30.03 846 24.98 3.8 38.9 44 -7.4 18.6
18:20 1017 30.03 846 24.98 4 39.2 44 -7 19.4
18:25 1017 30.03 846 24.98 4 39.2 44 -7.1 19.2
18:30 1017 30.03 846 24.98 4 39.2 43 -7.4 18.7
18:35 1017 30.03 846 24.98 4.1 39.4 44 -7 19.4
18:40 1017 30.03 846 24.98 4 39.3 44 -7.1 19.2
18:45 1017 30.03 846 24.98 3.9 39.1 47 -6.4 20.4
18:50 1017 30.03 846 24.98 3.8 38.9 46 -6.6 20.1
18:55 1017 30.03 846 24.98 3.8 38.8 46 -6.7 19.9
19:00 1017 30.03 846 24.98 3.8 38.8 47 -6.5 20.2
19:05 1017 30.03 846 24.98 3.7 38.7 46 -6.7 19.9
19:10 1017 30.03 846 24.98 3.7 38.7 47 -6.6 20.2
19:15 1017 30.03 846 24.98 3.6 38.5 48 -6.3 20.6
19:20 1017 30.03 846 24.98 3.5 38.3 49 -6.2 20.8
19:25 1017 30.03 846 24.98 3.4 38.1 49 -6.2 20.9
19:30 1017 30.03 846 24.98 3.3 37.9 49 -6.3 20.6
19:35 1017 30.03 846 24.98 3.2 37.8 48 -6.6 20
19:40 1017 30.03 846 24.98 3.4 38.1 46 -7.3 18.9
19:45 1017 30.03 846 24.98 3.5 38.4 47 -6.8 19.7
19:50 1017 30.03 846 24.98 3.6 38.5 50 -5.9 21.4
19:55 1017 30.03 846 24.98 3.1 37.5 54 -5.3 22.4
20:00 1017 30.03 847 25.01 2.9 37.2 52 -5.9 21.3
20:05 1017 30.03 847 25.01 3.1 37.5 52 -5.8 21.6
20:10 1017 30.03 847 25.01 3 37.4 54 -5.5 22.1
20:15 1018 30.06 847 25.01 3 37.3 50 -6.6 20.2
20:20 1018 30.06 847 25.01 3.3 37.9 51 -5.9 21.4
20:25 1018 30.06 847 25.01 3 37.4 51 -6 21.1
20:30 1018 30.06 847 25.01 2.9 37.2 52 -6.1 21.1
20:35 1018 30.06 847 25.01 2.9 37.3 50 -6.4 20.5
20:40 1018 30.06 847 25.01 3 37.4 53 -5.8 21.6
20:45 1018 30.06 847 25.01 3.1 37.5 54 -5.4 22.3
20:50 1018 30.06 847 25.01 2.8 37.1 55 -5.2 22.6
20:55 1018 30.06 847 25.01 2.8 37 52 -6.1 21.1
21:00 1018 30.06 847 25.01 2.8 37.1 53 -5.8 21.5
21:05 1018 30.06 847 25.01 3 37.4 52 -5.9 21.4
21:10 1018 30.06 847 25.01 3.2 37.7 52 -5.8 21.5
21:15 1018 30.06 847 25.01 3.2 37.7 53 -5.6 22
21:20 1018 30.06 847 25.01 3.2 37.8 53 -5.4 22.2
21:25 1018 30.06 847 25.01 3.2 37.8 54 -5.1 22.8
21:30 1018 30.06 847 25.01 3.1 37.6 56 -4.9 23.1
21:35 1018 30.06 848 25.04 3 37.4 57 -4.7 23.5
21:40 1018 30.06 848 25.04 3.1 37.5 58 -4.4 24
21:45 1018 30.06 848 25.04 3.1 37.6 59 -4.1 24.6
21:50 1018 30.06 848 25.04 3.1 37.6 61 -3.8 25.2
21:55 1019 30.09 848 25.04 3 37.5 62 -3.6 25.5
22:00 1019 30.09 848 25.04 3 37.4 62 -3.6 25.5
22:05 1019 30.09 848 25.04 2.9 37.2 64 -3.2 26.2
22:10 1019 30.09 848 25.04 2.7 36.8 66 -3 26.6
22:15 1019 30.09 848 25.04 2.6 36.6 68 -2.8 27
22:20 1019 30.09 848 25.04 2.4 36.3 71 -2.4 27.7
22:25 1019 30.09 848 25.04 2.2 35.9 73 -2.2 28.1
22:30 1019 30.09 848 25.04 2 35.6 74 -2.1 28.2
22:35 1019 30.09 848 25.04 2 35.5 74 -2.2 28.1
22:40 1019 30.09 848 25.04 2 35.6 75 -1.9 28.5
22:45 1019 30.09 848 25.04 2 35.5 75 -2 28.3
22:50 1019 30.09 848 25.04 1.9 35.4 75 -2.1 28.3
22:55 1019 30.09 848 25.04 1.8 35.3 75 -2 28.3
23:00 1019 30.09 848 25.04 1.8 35.2 74 -2.3 27.9
23:05 1019 30.09 848 25.04 1.7 35.1 74 -2.4 27.7
23:10 1019 30.09 848 25.04 1.7 35 74 -2.5 27.5
23:15 1019 30.09 849 25.07 1.6 34.9 73 -2.7 27.2
23:20 1019 30.09 849 25.07 1.5 34.8 75 -2.4 27.7
23:25 1020 30.12 849 25.07 1.6 34.9 75 -2.4 27.7
23:30 1020 30.12 849 25.07 1.6 34.8 78 -1.9 28.6
23:35 1020 30.12 849 25.07 1.2 34.1 84 -1.3 29.7
23:40 1020 30.12 849 25.07 0.8 33.5 87 -1.1 30
23:45 1020 30.12 849 25.07 0.4 32.7 91 -0.9 30.4
23:50 1020 30.12 849 25.07 0.1 32.2 92 -1.1 30.1
23:55 1020 30.12 849 25.07 0.1 32.2 92 -1.1 30
24:00 1020 30.12 849 25.07 0.2 32.4 91 -1.1 30